sensor_id;sensor_type;location;lat;lon;timestamp;P1;durP1;ratioP1;P2;durP2;ratioP2
45836;SDS011;31548;51.420;-0.040;2023-05-15T00:00:15;2.55;;;0.60;;
45836;SDS011;31548;51.420;-0.040;2023-05-15T00:02:42;4.05;;;0.60;;
45836;SDS011;31548;51.420;-0.040;2023-05-15T00:05:10;1.90;;;0.60;;
45836;SDS011;31548;51.420;-0.040;2023-05-15T00:07:39;2.15;;;0.90;;
45836;SDS011;31548;51.420;-0.040;2023-05-15T00:10:07;1.95;;;0.60;;
45836;SDS011;31548;51.420;-0.040;2023-05-15T00:12:34;1.80;;;0.73;;
45836;SDS011;31548;51.420;-0.040;2023-05-15T00:15:02;2.60;;;1.20;;
45836;SDS011;31548;51.420;-0.040;2023-05-15T00:17:29;0.90;;;0.70;;
45836;SDS011;31548;51.420;-0.040;2023-05-15T00:19:57;1.13;;;0.57;;
45836;SDS011;31548;51.420;-0.040;2023-05-15T00:22:25;2.10;;;0.80;;
45836;SDS011;31548;51.420;-0.040;2023-05-15T00:24:52;1.48;;;0.68;;
45836;SDS011;31548;51.420;-0.040;2023-05-15T00:27:20;0.80;;;0.60;;
45836;SDS011;31548;51.420;-0.040;2023-05-15T00:29:47;3.88;;;0.80;;
45836;SDS011;31548;51.420;-0.040;2023-05-15T00:32:14;3.30;;;0.70;;
45836;SDS011;31548;51.420;-0.040;2023-05-15T00:34:43;2.05;;;0.80;;
45836;SDS011;31548;51.420;-0.040;2023-05-15T00:37:10;1.55;;;0.75;;
45836;SDS011;31548;51.420;-0.040;2023-05-15T00:39:37;1.08;;;0.70;;
45836;SDS011;31548;51.420;-0.040;2023-05-15T00:42:05;3.20;;;0.90;;
45836;SDS011;31548;51.420;-0.040;2023-05-15T00:44:33;2.85;;;0.90;;
45836;SDS011;31548;51.420;-0.040;2023-05-15T00:47:01;2.70;;;0.80;;
45836;SDS011;31548;51.420;-0.040;2023-05-15T00:49:31;2.97;;;1.20;;
45836;SDS011;31548;51.420;-0.040;2023-05-15T00:52:01;2.28;;;0.80;;
45836;SDS011;31548;51.420;-0.040;2023-05-15T00:54:30;1.75;;;0.80;;
45836;SDS011;31548;51.420;-0.040;2023-05-15T00:56:57;1.25;;;0.70;;
45836;SDS011;31548;51.420;-0.040;2023-05-15T00:59:26;2.15;;;0.80;;
45836;SDS011;31548;51.420;-0.040;2023-05-15T01:01:54;1.88;;;0.70;;
45836;SDS011;31548;51.420;-0.040;2023-05-15T01:04:21;1.75;;;0.80;;
45836;SDS011;31548;51.420;-0.040;2023-05-15T01:06:50;1.05;;;0.50;;
45836;SDS011;31548;51.420;-0.040;2023-05-15T01:09:20;1.67;;;0.60;;
45836;SDS011;31548;51.420;-0.040;2023-05-15T01:11:52;1.23;;;0.70;;
45836;SDS011;31548;51.420;-0.040;2023-05-15T01:14:20;1.15;;;0.40;;
45836;SDS011;31548;51.420;-0.040;2023-05-15T01:16:48;0.98;;;0.40;;
45836;SDS011;31548;51.420;-0.040;2023-05-15T01:19:15;0.65;;;0.43;;
45836;SDS011;31548;51.420;-0.040;2023-05-15T01:27:18;1.23;;;0.50;;
45836;SDS011;31548;51.420;-0.040;2023-05-15T01:30:31;2.38;;;0.60;;
45836;SDS011;31548;51.420;-0.040;2023-05-15T01:33:05;0.85;;;0.40;;
45836;SDS011;31548;51.420;-0.040;2023-05-15T01:38:12;1.42;;;0.40;;
45836;SDS011;31548;51.420;-0.040;2023-05-15T01:40:46;1.33;;;0.40;;
45836;SDS011;31548;51.420;-0.040;2023-05-15T01:43:17;3.75;;;0.30;;
45836;SDS011;31548;51.420;-0.040;2023-05-15T01:45:49;1.50;;;0.30;;
45836;SDS011;31548;51.420;-0.040;2023-05-15T01:48:17;1.17;;;0.30;;
45836;SDS011;31548;51.420;-0.040;2023-05-15T01:50:45;2.28;;;0.77;;
45836;SDS011;31548;51.420;-0.040;2023-05-15T01:53:15;0.60;;;0.30;;
45836;SDS011;31548;51.420;-0.040;2023-05-15T01:55:44;1.30;;;0.32;;
45836;SDS011;31548;51.420;-0.040;2023-05-15T01:58:12;1.38;;;0.60;;
45836;SDS011;31548;51.420;-0.040;2023-05-15T02:00:41;1.23;;;0.43;;
45836;SDS011;31548;51.420;-0.040;2023-05-15T02:03:09;2.20;;;0.70;;
45836;SDS011;31548;51.420;-0.040;2023-05-15T02:05:39;2.97;;;0.50;;
45836;SDS011;31548;51.420;-0.040;2023-05-15T02:08:08;0.82;;;0.40;;
45836;SDS011;31548;51.420;-0.040;2023-05-15T02:10:37;0.98;;;0.60;;
45836;SDS011;31548;51.420;-0.040;2023-05-15T02:13:07;0.95;;;0.55;;
45836;SDS011;31548;51.420;-0.040;2023-05-15T02:15:34;1.45;;;0.52;;
45836;SDS011;31548;51.420;-0.040;2023-05-15T02:18:03;1.13;;;0.55;;
45836;SDS011;31548;51.420;-0.040;2023-05-15T02:20:31;1.13;;;0.50;;
45836;SDS011;31548;51.420;-0.040;2023-05-15T02:22:58;2.78;;;0.50;;
45836;SDS011;31548;51.420;-0.040;2023-05-15T02:25:31;5.72;;;1.00;;
45836;SDS011;31548;51.420;-0.040;2023-05-15T02:28:07;0.57;;;0.40;;
45836;SDS011;31548;51.420;-0.040;2023-05-15T02:31:07;2.38;;;0.40;;
45836;SDS011;31548;51.420;-0.040;2023-05-15T02:33:53;0.82;;;0.60;;
45836;SDS011;31548;51.420;-0.040;2023-05-15T02:36:28;1.42;;;0.60;;
45836;SDS011;31548;51.420;-0.040;2023-05-15T02:38:58;2.90;;;0.80;;
45836;SDS011;31548;51.420;-0.040;2023-05-15T02:41:27;2.90;;;0.50;;
45836;SDS011;31548;51.420;-0.040;2023-05-15T02:43:57;1.85;;;0.40;;
45836;SDS011;31548;51.420;-0.040;2023-05-15T02:46:25;0.93;;;0.50;;
45836;SDS011;31548;51.420;-0.040;2023-05-15T02:48:54;1.50;;;0.70;;
45836;SDS011;31548;51.420;-0.040;2023-05-15T02:51:22;3.03;;;0.65;;
45836;SDS011;31548;51.420;-0.040;2023-05-15T02:53:50;1.48;;;0.50;;
45836;SDS011;31548;51.420;-0.040;2023-05-15T02:56:18;1.05;;;0.70;;
45836;SDS011;31548;51.420;-0.040;2023-05-15T02:58:45;2.20;;;0.70;;
45836;SDS011;31548;51.420;-0.040;2023-05-15T03:01:12;2.38;;;0.60;;
45836;SDS011;31548;51.420;-0.040;2023-05-15T03:03:40;1.05;;;0.60;;
45836;SDS011;31548;51.420;-0.040;2023-05-15T03:06:07;1.88;;;0.60;;
45836;SDS011;31548;51.420;-0.040;2023-05-15T03:08:34;2.08;;;1.00;;
45836;SDS011;31548;51.420;-0.040;2023-05-15T03:11:02;1.95;;;0.95;;
45836;SDS011;31548;51.420;-0.040;2023-05-15T03:13:29;0.90;;;0.80;;
45836;SDS011;31548;51.420;-0.040;2023-05-15T03:15:56;1.15;;;0.60;;
45836;SDS011;31548;51.420;-0.040;2023-05-15T03:18:24;0.80;;;0.57;;
45836;SDS011;31548;51.420;-0.040;2023-05-15T03:20:51;2.97;;;0.65;;
45836;SDS011;31548;51.420;-0.040;2023-05-15T03:23:19;2.45;;;0.70;;
45836;SDS011;31548;51.420;-0.040;2023-05-15T03:25:46;5.82;;;0.70;;
45836;SDS011;31548;51.420;-0.040;2023-05-15T03:28:13;2.60;;;0.75;;
45836;SDS011;31548;51.420;-0.040;2023-05-15T03:30:44;1.65;;;0.85;;
45836;SDS011;31548;51.420;-0.040;2023-05-15T03:33:11;1.70;;;1.23;;
45836;SDS011;31548;51.420;-0.040;2023-05-15T03:35:38;6.90;;;1.25;;
45836;SDS011;31548;51.420;-0.040;2023-05-15T03:38:06;1.77;;;1.20;;
45836;SDS011;31548;51.420;-0.040;2023-05-15T03:40:33;1.77;;;1.10;;
45836;SDS011;31548;51.420;-0.040;2023-05-15T03:43:02;2.38;;;1.50;;
45836;SDS011;31548;51.420;-0.040;2023-05-15T03:45:29;3.17;;;1.70;;
45836;SDS011;31548;51.420;-0.040;2023-05-15T03:47:56;1.70;;;1.38;;
45836;SDS011;31548;51.420;-0.040;2023-05-15T03:50:24;1.60;;;1.02;;
45836;SDS011;31548;51.420;-0.040;2023-05-15T03:52:51;2.58;;;1.75;;
45836;SDS011;31548;51.420;-0.040;2023-05-15T03:55:19;2.92;;;1.52;;
45836;SDS011;31548;51.420;-0.040;2023-05-15T03:57:46;3.05;;;1.70;;
45836;SDS011;31548;51.420;-0.040;2023-05-15T04:00:14;2.28;;;1.58;;
45836;SDS011;31548;51.420;-0.040;2023-05-15T04:02:44;2.15;;;1.92;;
45836;SDS011;31548;51.420;-0.040;2023-05-15T04:05:12;3.95;;;2.03;;
45836;SDS011;31548;51.420;-0.040;2023-05-15T04:07:39;2.30;;;1.02;;
45836;SDS011;31548;51.420;-0.040;2023-05-15T04:10:06;5.03;;;1.70;;
45836;SDS011;31548;51.420;-0.040;2023-05-15T04:12:35;3.65;;;2.10;;
45836;SDS011;31548;51.420;-0.040;2023-05-15T04:15:21;2.90;;;1.83;;
45836;SDS011;31548;51.420;-0.040;2023-05-15T04:17:51;5.25;;;2.42;;
45836;SDS011;31548;51.420;-0.040;2023-05-15T04:20:20;3.78;;;1.63;;
45836;SDS011;31548;51.420;-0.040;2023-05-15T04:22:48;3.53;;;2.17;;
45836;SDS011;31548;51.420;-0.040;2023-05-15T04:25:17;2.70;;;2.35;;
45836;SDS011;31548;51.420;-0.040;2023-05-15T04:27:46;4.07;;;1.92;;
45836;SDS011;31548;51.420;-0.040;2023-05-15T04:30:14;4.32;;;1.98;;
45836;SDS011;31548;51.420;-0.040;2023-05-15T04:32:42;2.47;;;1.52;;
45836;SDS011;31548;51.420;-0.040;2023-05-15T04:35:10;2.03;;;1.42;;
45836;SDS011;31548;51.420;-0.040;2023-05-15T04:37:39;2.47;;;1.33;;
45836;SDS011;31548;51.420;-0.040;2023-05-15T04:40:07;4.20;;;1.45;;
45836;SDS011;31548;51.420;-0.040;2023-05-15T04:42:36;6.50;;;2.55;;
45836;SDS011;31548;51.420;-0.040;2023-05-15T04:45:05;3.95;;;2.08;;
45836;SDS011;31548;51.420;-0.040;2023-05-15T04:47:33;3.67;;;1.88;;
45836;SDS011;31548;51.420;-0.040;2023-05-15T04:50:01;3.00;;;1.85;;
45836;SDS011;31548;51.420;-0.040;2023-05-15T04:52:29;4.72;;;2.00;;
45836;SDS011;31548;51.420;-0.040;2023-05-15T04:54:57;4.90;;;2.08;;
45836;SDS011;31548;51.420;-0.040;2023-05-15T04:57:25;5.03;;;2.13;;
45836;SDS011;31548;51.420;-0.040;2023-05-15T04:59:53;4.50;;;2.28;;
45836;SDS011;31548;51.420;-0.040;2023-05-15T05:02:21;4.22;;;1.98;;
45836;SDS011;31548;51.420;-0.040;2023-05-15T05:04:48;4.85;;;1.65;;
45836;SDS011;31548;51.420;-0.040;2023-05-15T05:07:16;4.18;;;1.40;;
45836;SDS011;31548;51.420;-0.040;2023-05-15T05:09:44;3.70;;;1.42;;
45836;SDS011;31548;51.420;-0.040;2023-05-15T05:12:11;3.80;;;0.93;;
45836;SDS011;31548;51.420;-0.040;2023-05-15T05:14:39;3.30;;;1.00;;
45836;SDS011;31548;51.420;-0.040;2023-05-15T05:17:08;9.10;;;1.20;;
45836;SDS011;31548;51.420;-0.040;2023-05-15T05:19:35;7.22;;;1.15;;
45836;SDS011;31548;51.420;-0.040;2023-05-15T05:22:03;2.85;;;1.10;;
45836;SDS011;31548;51.420;-0.040;2023-05-15T05:24:31;6.45;;;1.00;;
45836;SDS011;31548;51.420;-0.040;2023-05-15T05:27:00;7.70;;;0.90;;
45836;SDS011;31548;51.420;-0.040;2023-05-15T05:29:28;3.92;;;0.65;;
45836;SDS011;31548;51.420;-0.040;2023-05-15T05:31:56;4.22;;;0.80;;
45836;SDS011;31548;51.420;-0.040;2023-05-15T05:34:24;5.57;;;1.00;;
45836;SDS011;31548;51.420;-0.040;2023-05-15T05:36:51;5.78;;;0.90;;
45836;SDS011;31548;51.420;-0.040;2023-05-15T05:39:18;4.10;;;0.85;;
45836;SDS011;31548;51.420;-0.040;2023-05-15T05:41:46;5.15;;;0.70;;
45836;SDS011;31548;51.420;-0.040;2023-05-15T05:44:13;3.97;;;0.60;;
45836;SDS011;31548;51.420;-0.040;2023-05-15T05:46:41;6.38;;;0.70;;
45836;SDS011;31548;51.420;-0.040;2023-05-15T05:49:08;6.07;;;0.73;;
45836;SDS011;31548;51.420;-0.040;2023-05-15T05:51:36;3.92;;;0.85;;
45836;SDS011;31548;51.420;-0.040;2023-05-15T05:54:04;3.72;;;0.70;;
45836;SDS011;31548;51.420;-0.040;2023-05-15T05:56:31;5.15;;;1.13;;
45836;SDS011;31548;51.420;-0.040;2023-05-15T05:58:59;4.03;;;1.00;;
45836;SDS011;31548;51.420;-0.040;2023-05-15T06:01:27;8.27;;;2.55;;
45836;SDS011;31548;51.420;-0.040;2023-05-15T06:03:55;4.38;;;0.98;;
45836;SDS011;31548;51.420;-0.040;2023-05-15T06:06:23;8.85;;;1.45;;
45836;SDS011;31548;51.420;-0.040;2023-05-15T06:08:50;11.40;;;1.23;;
45836;SDS011;31548;51.420;-0.040;2023-05-15T06:11:21;8.55;;;0.80;;
45836;SDS011;31548;51.420;-0.040;2023-05-15T06:13:51;7.43;;;0.80;;
45836;SDS011;31548;51.420;-0.040;2023-05-15T06:16:18;4.80;;;0.65;;
45836;SDS011;31548;51.420;-0.040;2023-05-15T06:18:46;6.90;;;0.75;;
45836;SDS011;31548;51.420;-0.040;2023-05-15T06:21:13;3.80;;;0.65;;
45836;SDS011;31548;51.420;-0.040;2023-05-15T06:23:41;6.57;;;0.82;;
45836;SDS011;31548;51.420;-0.040;2023-05-15T06:26:08;8.55;;;0.70;;
45836;SDS011;31548;51.420;-0.040;2023-05-15T06:28:35;8.90;;;0.90;;
45836;SDS011;31548;51.420;-0.040;2023-05-15T06:31:03;9.13;;;0.98;;
45836;SDS011;31548;51.420;-0.040;2023-05-15T06:33:30;7.68;;;1.25;;
45836;SDS011;31548;51.420;-0.040;2023-05-15T06:35:58;12.43;;;0.80;;
45836;SDS011;31548;51.420;-0.040;2023-05-15T06:38:25;8.65;;;1.13;;
45836;SDS011;31548;51.420;-0.040;2023-05-15T06:40:52;9.73;;;0.85;;
45836;SDS011;31548;51.420;-0.040;2023-05-15T06:43:19;2.28;;;0.60;;
45836;SDS011;31548;51.420;-0.040;2023-05-15T06:45:48;8.32;;;0.80;;
45836;SDS011;31548;51.420;-0.040;2023-05-15T06:48:15;4.20;;;0.70;;
45836;SDS011;31548;51.420;-0.040;2023-05-15T06:50:42;3.75;;;0.70;;
45836;SDS011;31548;51.420;-0.040;2023-05-15T06:53:10;4.85;;;0.70;;
45836;SDS011;31548;51.420;-0.040;2023-05-15T06:55:40;7.70;;;0.60;;
45836;SDS011;31548;51.420;-0.040;2023-05-15T06:58:07;9.63;;;0.57;;
45836;SDS011;31548;51.420;-0.040;2023-05-15T07:00:34;9.65;;;0.90;;
45836;SDS011;31548;51.420;-0.040;2023-05-15T07:03:02;3.42;;;0.80;;
45836;SDS011;31548;51.420;-0.040;2023-05-15T07:05:29;10.15;;;0.80;;
45836;SDS011;31548;51.420;-0.040;2023-05-15T07:07:57;7.47;;;0.60;;
45836;SDS011;31548;51.420;-0.040;2023-05-15T07:10:24;12.32;;;1.42;;
45836;SDS011;31548;51.420;-0.040;2023-05-15T07:12:52;5.13;;;0.80;;
45836;SDS011;31548;51.420;-0.040;2023-05-15T07:15:20;7.95;;;1.00;;
45836;SDS011;31548;51.420;-0.040;2023-05-15T07:17:47;4.97;;;0.77;;
45836;SDS011;31548;51.420;-0.040;2023-05-15T07:20:15;4.55;;;0.70;;
45836;SDS011;31548;51.420;-0.040;2023-05-15T07:22:42;7.55;;;1.02;;
45836;SDS011;31548;51.420;-0.040;2023-05-15T07:25:21;3.33;;;0.60;;
45836;SDS011;31548;51.420;-0.040;2023-05-15T07:27:49;6.60;;;0.75;;
45836;SDS011;31548;51.420;-0.040;2023-05-15T07:30:17;2.45;;;0.60;;
45836;SDS011;31548;51.420;-0.040;2023-05-15T07:32:44;4.82;;;0.50;;
45836;SDS011;31548;51.420;-0.040;2023-05-15T07:35:12;3.53;;;0.65;;
45836;SDS011;31548;51.420;-0.040;2023-05-15T07:37:39;9.25;;;0.60;;
45836;SDS011;31548;51.420;-0.040;2023-05-15T07:40:07;6.18;;;0.60;;
45836;SDS011;31548;51.420;-0.040;2023-05-15T07:42:34;8.65;;;0.90;;
45836;SDS011;31548;51.420;-0.040;2023-05-15T07:45:02;3.70;;;0.70;;
45836;SDS011;31548;51.420;-0.040;2023-05-15T07:47:30;5.13;;;0.60;;
45836;SDS011;31548;51.420;-0.040;2023-05-15T07:49:57;7.30;;;1.00;;
45836;SDS011;31548;51.420;-0.040;2023-05-15T07:52:25;5.85;;;0.70;;
45836;SDS011;31548;51.420;-0.040;2023-05-15T07:54:52;11.70;;;1.00;;
45836;SDS011;31548;51.420;-0.040;2023-05-15T07:57:19;3.00;;;0.70;;
45836;SDS011;31548;51.420;-0.040;2023-05-15T07:59:47;5.20;;;0.60;;
45836;SDS011;31548;51.420;-0.040;2023-05-15T08:02:14;5.25;;;0.90;;
45836;SDS011;31548;51.420;-0.040;2023-05-15T08:04:41;7.53;;;0.80;;
45836;SDS011;31548;51.420;-0.040;2023-05-15T08:07:09;5.78;;;0.57;;
45836;SDS011;31548;51.420;-0.040;2023-05-15T08:09:36;7.38;;;0.60;;
45836;SDS011;31548;51.420;-0.040;2023-05-15T08:12:14;10.90;;;1.33;;
45836;SDS011;31548;51.420;-0.040;2023-05-15T08:14:51;5.32;;;0.82;;
45836;SDS011;31548;51.420;-0.040;2023-05-15T08:17:20;7.13;;;0.63;;
45836;SDS011;31548;51.420;-0.040;2023-05-15T08:19:48;5.65;;;0.50;;
45836;SDS011;31548;51.420;-0.040;2023-05-15T08:22:15;4.85;;;0.55;;
45836;SDS011;31548;51.420;-0.040;2023-05-15T08:24:43;6.45;;;0.93;;
45836;SDS011;31548;51.420;-0.040;2023-05-15T08:27:10;6.13;;;0.73;;
45836;SDS011;31548;51.420;-0.040;2023-05-15T08:29:38;4.65;;;0.52;;
45836;SDS011;31548;51.420;-0.040;2023-05-15T08:32:05;7.05;;;0.60;;
45836;SDS011;31548;51.420;-0.040;2023-05-15T08:34:34;5.90;;;0.80;;
45836;SDS011;31548;51.420;-0.040;2023-05-15T08:37:02;9.35;;;1.42;;
45836;SDS011;31548;51.420;-0.040;2023-05-15T08:39:31;4.25;;;0.50;;
45836;SDS011;31548;51.420;-0.040;2023-05-15T08:44:45;7.25;;;1.50;;
45836;SDS011;31548;51.420;-0.040;2023-05-15T08:47:14;5.38;;;0.50;;
45836;SDS011;31548;51.420;-0.040;2023-05-15T08:52:24;1.52;;;0.30;;
45836;SDS011;31548;51.420;-0.040;2023-05-15T08:54:52;4.80;;;0.60;;
45836;SDS011;31548;51.420;-0.040;2023-05-15T08:57:19;7.03;;;0.73;;
45836;SDS011;31548;51.420;-0.040;2023-05-15T08:59:48;7.30;;;0.70;;
45836;SDS011;31548;51.420;-0.040;2023-05-15T09:02:17;3.30;;;1.08;;
45836;SDS011;31548;51.420;-0.040;2023-05-15T09:04:45;4.95;;;0.60;;
45836;SDS011;31548;51.420;-0.040;2023-05-15T09:07:14;3.42;;;0.43;;
45836;SDS011;31548;51.420;-0.040;2023-05-15T09:09:41;4.85;;;0.50;;
45836;SDS011;31548;51.420;-0.040;2023-05-15T09:12:10;2.90;;;0.45;;
45836;SDS011;31548;51.420;-0.040;2023-05-15T09:14:43;3.72;;;0.40;;
45836;SDS011;31548;51.420;-0.040;2023-05-15T09:17:11;10.70;;;0.75;;
45836;SDS011;31548;51.420;-0.040;2023-05-15T09:19:38;5.13;;;0.47;;
45836;SDS011;31548;51.420;-0.040;2023-05-15T09:22:17;7.82;;;0.52;;
45836;SDS011;31548;51.420;-0.040;2023-05-15T09:24:51;3.55;;;0.40;;
45836;SDS011;31548;51.420;-0.040;2023-05-15T09:27:19;4.20;;;0.60;;
45836;SDS011;31548;51.420;-0.040;2023-05-15T09:29:46;3.33;;;0.40;;
45836;SDS011;31548;51.420;-0.040;2023-05-15T09:32:16;3.60;;;0.50;;
45836;SDS011;31548;51.420;-0.040;2023-05-15T09:34:44;7.22;;;0.50;;
45836;SDS011;31548;51.420;-0.040;2023-05-15T09:37:34;5.45;;;0.80;;
45836;SDS011;31548;51.420;-0.040;2023-05-15T09:40:09;6.65;;;0.70;;
45836;SDS011;31548;51.420;-0.040;2023-05-15T09:42:37;3.70;;;0.60;;
45836;SDS011;31548;51.420;-0.040;2023-05-15T09:45:04;10.55;;;0.82;;
45836;SDS011;31548;51.420;-0.040;2023-05-15T09:47:32;7.88;;;0.50;;
45836;SDS011;31548;51.420;-0.040;2023-05-15T09:50:00;1.60;;;0.40;;
45836;SDS011;31548;51.420;-0.040;2023-05-15T09:52:27;5.97;;;0.50;;
45836;SDS011;31548;51.420;-0.040;2023-05-15T09:54:55;7.45;;;0.77;;
45836;SDS011;31548;51.420;-0.040;2023-05-15T09:57:23;7.40;;;0.50;;
45836;SDS011;31548;51.420;-0.040;2023-05-15T09:59:51;3.03;;;0.43;;
45836;SDS011;31548;51.420;-0.040;2023-05-15T10:02:22;5.53;;;0.50;;
45836;SDS011;31548;51.420;-0.040;2023-05-15T10:04:54;5.22;;;0.80;;
45836;SDS011;31548;51.420;-0.040;2023-05-15T10:09:57;3.40;;;0.43;;
45836;SDS011;31548;51.420;-0.040;2023-05-15T10:12:25;9.40;;;0.65;;
45836;SDS011;31548;51.420;-0.040;2023-05-15T10:14:57;2.38;;;0.50;;
45836;SDS011;31548;51.420;-0.040;2023-05-15T10:17:28;11.10;;;0.85;;
45836;SDS011;31548;51.420;-0.040;2023-05-15T10:20:00;2.00;;;0.25;;
45836;SDS011;31548;51.420;-0.040;2023-05-15T10:22:29;5.32;;;0.68;;
45836;SDS011;31548;51.420;-0.040;2023-05-15T10:25:08;5.82;;;0.50;;
45836;SDS011;31548;51.420;-0.040;2023-05-15T10:27:39;10.00;;;0.70;;
45836;SDS011;31548;51.420;-0.040;2023-05-15T10:30:08;2.92;;;0.40;;
45836;SDS011;31548;51.420;-0.040;2023-05-15T10:32:40;5.85;;;0.60;;
45836;SDS011;31548;51.420;-0.040;2023-05-15T10:35:11;6.32;;;0.50;;
45836;SDS011;31548;51.420;-0.040;2023-05-15T10:37:39;6.45;;;0.55;;
45836;SDS011;31548;51.420;-0.040;2023-05-15T10:40:09;3.25;;;0.50;;
45836;SDS011;31548;51.420;-0.040;2023-05-15T10:42:40;3.17;;;0.50;;
45836;SDS011;31548;51.420;-0.040;2023-05-15T10:45:10;5.45;;;0.32;;
45836;SDS011;31548;51.420;-0.040;2023-05-15T10:47:42;4.28;;;0.40;;
45836;SDS011;31548;51.420;-0.040;2023-05-15T10:50:10;6.65;;;0.60;;
45836;SDS011;31548;51.420;-0.040;2023-05-15T10:52:39;5.50;;;0.50;;
45836;SDS011;31548;51.420;-0.040;2023-05-15T10:55:08;4.55;;;0.50;;
45836;SDS011;31548;51.420;-0.040;2023-05-15T10:57:40;3.70;;;0.50;;
45836;SDS011;31548;51.420;-0.040;2023-05-15T11:02:56;6.72;;;0.63;;
45836;SDS011;31548;51.420;-0.040;2023-05-15T11:05:25;2.05;;;0.40;;
45836;SDS011;31548;51.420;-0.040;2023-05-15T11:10:41;4.57;;;0.80;;
45836;SDS011;31548;51.420;-0.040;2023-05-15T11:13:08;7.63;;;0.50;;
45836;SDS011;31548;51.420;-0.040;2023-05-15T11:15:41;7.25;;;0.80;;
45836;SDS011;31548;51.420;-0.040;2023-05-15T11:18:09;5.10;;;0.65;;
45836;SDS011;31548;51.420;-0.040;2023-05-15T11:20:42;6.50;;;0.60;;
45836;SDS011;31548;51.420;-0.040;2023-05-15T11:23:24;2.40;;;0.30;;
45836;SDS011;31548;51.420;-0.040;2023-05-15T11:25:51;6.78;;;0.55;;
45836;SDS011;31548;51.420;-0.040;2023-05-15T11:28:21;5.63;;;0.55;;
45836;SDS011;31548;51.420;-0.040;2023-05-15T11:30:50;2.97;;;0.40;;
45836;SDS011;31548;51.420;-0.040;2023-05-15T11:33:19;2.75;;;0.30;;
45836;SDS011;31548;51.420;-0.040;2023-05-15T11:35:47;3.22;;;0.40;;
45836;SDS011;31548;51.420;-0.040;2023-05-15T11:38:15;2.92;;;0.47;;
45836;SDS011;31548;51.420;-0.040;2023-05-15T11:40:47;1.05;;;0.45;;
45836;SDS011;31548;51.420;-0.040;2023-05-15T11:45:51;2.28;;;0.40;;
45836;SDS011;31548;51.420;-0.040;2023-05-15T11:48:21;2.80;;;0.40;;
45836;SDS011;31548;51.420;-0.040;2023-05-15T11:50:50;2.85;;;0.30;;
45836;SDS011;31548;51.420;-0.040;2023-05-15T11:53:21;2.38;;;0.40;;
45836;SDS011;31548;51.420;-0.040;2023-05-15T11:55:50;5.65;;;0.57;;
45836;SDS011;31548;51.420;-0.040;2023-05-15T11:58:20;2.55;;;0.30;;
45836;SDS011;31548;51.420;-0.040;2023-05-15T12:00:50;3.97;;;0.38;;
45836;SDS011;31548;51.420;-0.040;2023-05-15T12:03:26;4.47;;;0.40;;
45836;SDS011;31548;51.420;-0.040;2023-05-15T12:06:00;3.88;;;0.45;;
45836;SDS011;31548;51.420;-0.040;2023-05-15T12:08:34;1.15;;;0.35;;
45836;SDS011;31548;51.420;-0.040;2023-05-15T12:11:03;2.20;;;0.20;;
45836;SDS011;31548;51.420;-0.040;2023-05-15T12:13:31;1.60;;;0.40;;
45836;SDS011;31548;51.420;-0.040;2023-05-15T12:16:00;2.10;;;0.40;;
45836;SDS011;31548;51.420;-0.040;2023-05-15T12:18:30;2.05;;;0.40;;
45836;SDS011;31548;51.420;-0.040;2023-05-15T12:20:58;4.72;;;0.40;;
45836;SDS011;31548;51.420;-0.040;2023-05-15T12:23:25;1.08;;;0.40;;
45836;SDS011;31548;51.420;-0.040;2023-05-15T12:25:56;5.40;;;0.30;;
45836;SDS011;31548;51.420;-0.040;2023-05-15T12:28:28;2.25;;;0.50;;
45836;SDS011;31548;51.420;-0.040;2023-05-15T12:30:59;4.32;;;0.35;;
45836;SDS011;31548;51.420;-0.040;2023-05-15T12:33:27;0.82;;;0.40;;
45836;SDS011;31548;51.420;-0.040;2023-05-15T12:35:55;3.88;;;0.43;;
45836;SDS011;31548;51.420;-0.040;2023-05-15T12:38:27;2.70;;;0.40;;
45836;SDS011;31548;51.420;-0.040;2023-05-15T12:40:55;2.30;;;0.30;;
45836;SDS011;31548;51.420;-0.040;2023-05-15T12:43:23;1.60;;;0.38;;
45836;SDS011;31548;51.420;-0.040;2023-05-15T12:45:55;2.00;;;0.40;;
45836;SDS011;31548;51.420;-0.040;2023-05-15T12:48:27;2.15;;;0.55;;
45836;SDS011;31548;51.420;-0.040;2023-05-15T12:51:02;2.00;;;0.38;;
45836;SDS011;31548;51.420;-0.040;2023-05-15T12:53:32;3.75;;;0.40;;
45836;SDS011;31548;51.420;-0.040;2023-05-15T12:56:06;3.08;;;0.40;;
45836;SDS011;31548;51.420;-0.040;2023-05-15T12:58:35;4.43;;;0.52;;
45836;SDS011;31548;51.420;-0.040;2023-05-15T13:01:02;2.35;;;0.30;;
45836;SDS011;31548;51.420;-0.040;2023-05-15T13:03:30;3.05;;;0.30;;
45836;SDS011;31548;51.420;-0.040;2023-05-15T13:05:58;3.20;;;0.60;;
45836;SDS011;31548;51.420;-0.040;2023-05-15T13:08:29;4.80;;;0.50;;
45836;SDS011;31548;51.420;-0.040;2023-05-15T13:10:57;3.28;;;0.30;;
45836;SDS011;31548;51.420;-0.040;2023-05-15T13:13:47;1.08;;;0.47;;
45836;SDS011;31548;51.420;-0.040;2023-05-15T13:16:20;2.17;;;0.30;;
45836;SDS011;31548;51.420;-0.040;2023-05-15T13:18:51;2.65;;;0.20;;
45836;SDS011;31548;51.420;-0.040;2023-05-15T13:21:19;3.75;;;0.38;;
45836;SDS011;31548;51.420;-0.040;2023-05-15T13:23:46;1.02;;;0.40;;
45836;SDS011;31548;51.420;-0.040;2023-05-15T13:26:14;1.85;;;0.30;;
45836;SDS011;31548;51.420;-0.040;2023-05-15T13:28:41;5.88;;;0.40;;
45836;SDS011;31548;51.420;-0.040;2023-05-15T13:31:08;2.70;;;0.32;;
45836;SDS011;31548;51.420;-0.040;2023-05-15T13:33:36;1.38;;;0.30;;
45836;SDS011;31548;51.420;-0.040;2023-05-15T13:36:03;6.15;;;0.40;;
45836;SDS011;31548;51.420;-0.040;2023-05-15T13:38:31;5.15;;;0.22;;
45836;SDS011;31548;51.420;-0.040;2023-05-15T13:40:59;4.30;;;0.40;;
45836;SDS011;31548;51.420;-0.040;2023-05-15T13:43:26;6.20;;;0.30;;
45836;SDS011;31548;51.420;-0.040;2023-05-15T13:45:53;2.58;;;0.30;;
45836;SDS011;31548;51.420;-0.040;2023-05-15T13:48:21;2.03;;;0.35;;
45836;SDS011;31548;51.420;-0.040;2023-05-15T13:50:48;3.60;;;0.30;;
45836;SDS011;31548;51.420;-0.040;2023-05-15T13:53:15;4.43;;;0.38;;
45836;SDS011;31548;51.420;-0.040;2023-05-15T13:55:43;1.33;;;0.30;;
45836;SDS011;31548;51.420;-0.040;2023-05-15T13:58:11;2.20;;;0.20;;
45836;SDS011;31548;51.420;-0.040;2023-05-15T14:00:42;2.70;;;0.30;;
45836;SDS011;31548;51.420;-0.040;2023-05-15T14:03:10;3.38;;;0.30;;
45836;SDS011;31548;51.420;-0.040;2023-05-15T14:05:40;1.25;;;0.30;;
45836;SDS011;31548;51.420;-0.040;2023-05-15T14:08:08;1.58;;;0.38;;
45836;SDS011;31548;51.420;-0.040;2023-05-15T14:10:35;1.90;;;0.30;;
45836;SDS011;31548;51.420;-0.040;2023-05-15T14:13:03;2.22;;;0.30;;
45836;SDS011;31548;51.420;-0.040;2023-05-15T14:15:30;2.38;;;0.30;;
45836;SDS011;31548;51.420;-0.040;2023-05-15T14:17:57;1.95;;;0.30;;
45836;SDS011;31548;51.420;-0.040;2023-05-15T14:20:25;2.63;;;0.40;;
45836;SDS011;31548;51.420;-0.040;2023-05-15T14:22:52;1.85;;;0.38;;
45836;SDS011;31548;51.420;-0.040;2023-05-15T14:25:20;4.07;;;0.50;;
45836;SDS011;31548;51.420;-0.040;2023-05-15T14:27:47;3.67;;;0.30;;
45836;SDS011;31548;51.420;-0.040;2023-05-15T14:30:14;4.43;;;0.57;;
45836;SDS011;31548;51.420;-0.040;2023-05-15T14:32:41;4.05;;;0.30;;
45836;SDS011;31548;51.420;-0.040;2023-05-15T14:35:09;2.95;;;0.40;;
45836;SDS011;31548;51.420;-0.040;2023-05-15T14:37:36;2.33;;;0.30;;
45836;SDS011;31548;51.420;-0.040;2023-05-15T14:40:03;2.40;;;0.40;;
45836;SDS011;31548;51.420;-0.040;2023-05-15T14:42:32;1.45;;;0.20;;
45836;SDS011;31548;51.420;-0.040;2023-05-15T14:44:59;1.35;;;0.30;;
45836;SDS011;31548;51.420;-0.040;2023-05-15T14:47:27;2.50;;;0.40;;
45836;SDS011;31548;51.420;-0.040;2023-05-15T14:49:55;1.73;;;0.43;;
45836;SDS011;31548;51.420;-0.040;2023-05-15T14:52:22;1.30;;;0.30;;
45836;SDS011;31548;51.420;-0.040;2023-05-15T14:54:50;7.47;;;0.43;;
45836;SDS011;31548;51.420;-0.040;2023-05-15T14:57:33;6.75;;;0.50;;
45836;SDS011;31548;51.420;-0.040;2023-05-15T15:00:01;3.70;;;0.50;;
45836;SDS011;31548;51.420;-0.040;2023-05-15T15:02:30;4.32;;;0.40;;
45836;SDS011;31548;51.420;-0.040;2023-05-15T15:04:57;1.95;;;0.45;;
45836;SDS011;31548;51.420;-0.040;2023-05-15T15:07:28;8.02;;;0.50;;